sensor_id;sensor_type;location;lat;lon;timestamp;P1;durP1;ratioP1;P2;durP2;ratioP2
64842;SDS011;51310;52.198;5.422;2023-09-30T00:00:58;12.43;;;3.85;;
64842;SDS011;51310;52.198;5.422;2023-09-30T00:03:24;14.73;;;4.93;;
64842;SDS011;51310;52.198;5.422;2023-09-30T00:05:50;20.23;;;4.40;;
64842;SDS011;51310;52.198;5.422;2023-09-30T00:08:16;20.23;;;4.63;;
64842;SDS011;51310;52.198;5.422;2023-09-30T00:10:42;16.95;;;5.43;;
64842;SDS011;51310;52.198;5.422;2023-09-30T00:13:08;15.18;;;4.90;;
64842;SDS011;51310;52.198;5.422;2023-09-30T00:15:34;14.95;;;5.25;;
64842;SDS011;51310;52.198;5.422;2023-09-30T00:18:00;11.15;;;4.45;;
64842;SDS011;51310;52.198;5.422;2023-09-30T00:20:26;14.07;;;4.93;;
64842;SDS011;51310;52.198;5.422;2023-09-30T00:22:53;16.92;;;5.25;;
64842;SDS011;51310;52.198;5.422;2023-09-30T00:25:19;16.73;;;5.07;;
64842;SDS011;51310;52.198;5.422;2023-09-30T00:27:46;14.20;;;5.03;;
64842;SDS011;51310;52.198;5.422;2023-09-30T00:30:15;17.15;;;5.13;;
64842;SDS011;51310;52.198;5.422;2023-09-30T00:32:41;17.65;;;5.30;;
64842;SDS011;51310;52.198;5.422;2023-09-30T00:35:07;9.45;;;4.07;;
64842;SDS011;51310;52.198;5.422;2023-09-30T00:37:37;16.75;;;5.40;;
64842;SDS011;51310;52.198;5.422;2023-09-30T00:40:04;13.70;;;4.63;;
64842;SDS011;51310;52.198;5.422;2023-09-30T00:42:32;20.70;;;5.05;;
64842;SDS011;51310;52.198;5.422;2023-09-30T00:44:58;9.18;;;4.82;;
64842;SDS011;51310;52.198;5.422;2023-09-30T00:47:24;12.27;;;4.78;;
64842;SDS011;51310;52.198;5.422;2023-09-30T00:49:51;13.88;;;5.70;;
64842;SDS011;51310;52.198;5.422;2023-09-30T00:52:18;11.30;;;5.07;;
64842;SDS011;51310;52.198;5.422;2023-09-30T00:54:45;9.65;;;4.72;;
64842;SDS011;51310;52.198;5.422;2023-09-30T00:57:14;17.30;;;6.68;;
64842;SDS011;51310;52.198;5.422;2023-09-30T00:59:40;15.95;;;4.53;;
64842;SDS011;51310;52.198;5.422;2023-09-30T01:02:07;14.52;;;5.25;;
64842;SDS011;51310;52.198;5.422;2023-09-30T01:04:33;14.00;;;6.20;;
64842;SDS011;51310;52.198;5.422;2023-09-30T01:06:59;15.48;;;6.82;;
64842;SDS011;51310;52.198;5.422;2023-09-30T01:09:24;18.65;;;6.20;;
64842;SDS011;51310;52.198;5.422;2023-09-30T01:11:51;12.20;;;4.85;;
64842;SDS011;51310;52.198;5.422;2023-09-30T01:14:50;22.45;;;5.35;;
64842;SDS011;51310;52.198;5.422;2023-09-30T01:17:09;14.02;;;4.55;;
64842;SDS011;51310;52.198;5.422;2023-09-30T01:19:38;15.25;;;5.70;;
64842;SDS011;51310;52.198;5.422;2023-09-30T01:22:07;16.73;;;4.78;;
64842;SDS011;51310;52.198;5.422;2023-09-30T01:24:38;15.05;;;5.55;;
64842;SDS011;51310;52.198;5.422;2023-09-30T01:27:06;10.70;;;5.07;;
64842;SDS011;51310;52.198;5.422;2023-09-30T01:29:35;14.55;;;6.03;;
64842;SDS011;51310;52.198;5.422;2023-09-30T01:32:03;12.85;;;5.25;;
64842;SDS011;51310;52.198;5.422;2023-09-30T01:34:35;14.13;;;5.10;;
64842;SDS011;51310;52.198;5.422;2023-09-30T01:37:01;14.23;;;5.32;;
64842;SDS011;51310;52.198;5.422;2023-09-30T01:39:27;20.75;;;5.45;;
64842;SDS011;51310;52.198;5.422;2023-09-30T01:41:54;18.25;;;5.70;;
64842;SDS011;51310;52.198;5.422;2023-09-30T01:44:20;21.95;;;5.43;;
64842;SDS011;51310;52.198;5.422;2023-09-30T01:46:46;14.88;;;5.50;;
64842;SDS011;51310;52.198;5.422;2023-09-30T01:49:12;14.27;;;6.63;;
64842;SDS011;51310;52.198;5.422;2023-09-30T01:51:38;14.23;;;4.60;;
64842;SDS011;51310;52.198;5.422;2023-09-30T01:54:04;13.15;;;4.70;;
64842;SDS011;51310;52.198;5.422;2023-09-30T01:56:30;18.08;;;6.10;;
64842;SDS011;51310;52.198;5.422;2023-09-30T01:58:56;20.35;;;5.55;;
64842;SDS011;51310;52.198;5.422;2023-09-30T02:01:23;19.45;;;6.70;;
64842;SDS011;51310;52.198;5.422;2023-09-30T02:03:49;14.25;;;5.60;;
64842;SDS011;51310;52.198;5.422;2023-09-30T02:06:15;17.70;;;6.35;;
64842;SDS011;51310;52.198;5.422;2023-09-30T02:08:41;12.63;;;5.90;;
64842;SDS011;51310;52.198;5.422;2023-09-30T02:11:09;14.55;;;6.35;;
64842;SDS011;51310;52.198;5.422;2023-09-30T02:13:38;15.45;;;5.90;;
64842;SDS011;51310;52.198;5.422;2023-09-30T02:16:05;14.65;;;5.88;;
64842;SDS011;51310;52.198;5.422;2023-09-30T02:18:36;10.48;;;5.50;;
64842;SDS011;51310;52.198;5.422;2023-09-30T02:21:02;15.93;;;6.47;;
64842;SDS011;51310;52.198;5.422;2023-09-30T02:23:29;16.05;;;5.72;;
64842;SDS011;51310;52.198;5.422;2023-09-30T02:25:55;16.83;;;5.93;;
64842;SDS011;51310;52.198;5.422;2023-09-30T02:28:20;15.93;;;6.22;;
64842;SDS011;51310;52.198;5.422;2023-09-30T02:30:46;19.27;;;6.65;;
64842;SDS011;51310;52.198;5.422;2023-09-30T02:33:13;17.55;;;6.82;;
64842;SDS011;51310;52.198;5.422;2023-09-30T02:35:43;15.93;;;6.93;;
64842;SDS011;51310;52.198;5.422;2023-09-30T02:38:10;19.02;;;6.50;;
64842;SDS011;51310;52.198;5.422;2023-09-30T02:40:37;26.90;;;7.22;;
64842;SDS011;51310;52.198;5.422;2023-09-30T02:43:05;13.65;;;7.35;;
64842;SDS011;51310;52.198;5.422;2023-09-30T02:45:31;16.10;;;7.55;;
64842;SDS011;51310;52.198;5.422;2023-09-30T02:47:57;19.60;;;6.97;;
64842;SDS011;51310;52.198;5.422;2023-09-30T02:50:23;12.30;;;6.18;;
64842;SDS011;51310;52.198;5.422;2023-09-30T02:52:49;23.23;;;8.05;;
64842;SDS011;51310;52.198;5.422;2023-09-30T02:55:15;25.73;;;7.95;;
64842;SDS011;51310;52.198;5.422;2023-09-30T02:57:41;14.43;;;8.10;;
64842;SDS011;51310;52.198;5.422;2023-09-30T03:00:08;19.67;;;7.68;;
64842;SDS011;51310;52.198;5.422;2023-09-30T03:02:51;23.35;;;7.40;;
64842;SDS011;51310;52.198;5.422;2023-09-30T03:05:19;16.85;;;8.68;;
64842;SDS011;51310;52.198;5.422;2023-09-30T03:07:46;21.92;;;9.23;;
64842;SDS011;51310;52.198;5.422;2023-09-30T03:10:13;19.23;;;8.35;;
64842;SDS011;51310;52.198;5.422;2023-09-30T03:12:45;19.80;;;8.27;;
64842;SDS011;51310;52.198;5.422;2023-09-30T03:15:15;19.52;;;9.00;;
64842;SDS011;51310;52.198;5.422;2023-09-30T03:17:41;23.00;;;9.30;;
64842;SDS011;51310;52.198;5.422;2023-09-30T03:20:08;21.48;;;9.07;;
64842;SDS011;51310;52.198;5.422;2023-09-30T03:22:40;14.35;;;8.85;;
64842;SDS011;51310;52.198;5.422;2023-09-30T03:25:08;22.38;;;8.88;;
64842;SDS011;51310;52.198;5.422;2023-09-30T03:27:38;21.10;;;10.65;;
64842;SDS011;51310;52.198;5.422;2023-09-30T03:30:04;21.05;;;9.23;;
64842;SDS011;51310;52.198;5.422;2023-09-30T03:32:31;23.98;;;10.00;;
64842;SDS011;51310;52.198;5.422;2023-09-30T03:35:07;22.23;;;9.10;;
64842;SDS011;51310;52.198;5.422;2023-09-30T03:37:41;16.80;;;8.30;;
64842;SDS011;51310;52.198;5.422;2023-09-30T03:40:12;17.98;;;9.02;;
64842;SDS011;51310;52.198;5.422;2023-09-30T03:42:43;22.42;;;9.70;;
64842;SDS011;51310;52.198;5.422;2023-09-30T03:45:09;23.95;;;9.55;;
64842;SDS011;51310;52.198;5.422;2023-09-30T03:47:39;21.73;;;9.30;;
64842;SDS011;51310;52.198;5.422;2023-09-30T03:50:07;17.27;;;8.73;;
64842;SDS011;51310;52.198;5.422;2023-09-30T03:52:40;24.35;;;10.10;;
64842;SDS011;51310;52.198;5.422;2023-09-30T03:55:13;25.00;;;10.05;;
64842;SDS011;51310;52.198;5.422;2023-09-30T03:57:42;21.88;;;9.82;;
64842;SDS011;51310;52.198;5.422;2023-09-30T04:00:12;29.65;;;9.55;;
64842;SDS011;51310;52.198;5.422;2023-09-30T04:02:43;24.73;;;9.82;;
64842;SDS011;51310;52.198;5.422;2023-09-30T04:05:13;19.48;;;10.10;;
64842;SDS011;51310;52.198;5.422;2023-09-30T04:07:41;25.95;;;9.98;;
64842;SDS011;51310;52.198;5.422;2023-09-30T04:10:08;18.55;;;11.02;;
64842;SDS011;51310;52.198;5.422;2023-09-30T04:12:35;21.67;;;10.40;;
64842;SDS011;51310;52.198;5.422;2023-09-30T04:15:02;23.08;;;11.07;;
64842;SDS011;51310;52.198;5.422;2023-09-30T04:17:31;21.52;;;9.32;;
64842;SDS011;51310;52.198;5.422;2023-09-30T04:19:57;19.40;;;11.27;;
64842;SDS011;51310;52.198;5.422;2023-09-30T04:22:24;22.35;;;11.32;;
64842;SDS011;51310;52.198;5.422;2023-09-30T04:24:53;22.33;;;9.75;;
64842;SDS011;51310;52.198;5.422;2023-09-30T04:27:19;29.38;;;11.40;;
64842;SDS011;51310;52.198;5.422;2023-09-30T04:29:45;23.08;;;10.75;;
64842;SDS011;51310;52.198;5.422;2023-09-30T04:32:11;21.10;;;10.52;;
64842;SDS011;51310;52.198;5.422;2023-09-30T04:34:37;19.67;;;10.90;;
64842;SDS011;51310;52.198;5.422;2023-09-30T04:37:03;18.52;;;10.27;;
64842;SDS011;51310;52.198;5.422;2023-09-30T04:39:29;31.23;;;13.30;;
64842;SDS011;51310;52.198;5.422;2023-09-30T04:41:54;22.25;;;11.85;;
64842;SDS011;51310;52.198;5.422;2023-09-30T04:44:20;26.27;;;10.70;;
64842;SDS011;51310;52.198;5.422;2023-09-30T04:46:47;28.63;;;12.50;;
64842;SDS011;51310;52.198;5.422;2023-09-30T04:49:14;28.13;;;12.85;;
64842;SDS011;51310;52.198;5.422;2023-09-30T04:51:40;26.67;;;12.52;;
64842;SDS011;51310;52.198;5.422;2023-09-30T04:54:06;30.00;;;13.10;;
64842;SDS011;51310;52.198;5.422;2023-09-30T04:56:34;26.58;;;13.27;;
64842;SDS011;51310;52.198;5.422;2023-09-30T04:59:00;36.00;;;12.60;;
64842;SDS011;51310;52.198;5.422;2023-09-30T05:01:29;24.85;;;12.57;;
64842;SDS011;51310;52.198;5.422;2023-09-30T05:03:54;21.35;;;11.63;;
64842;SDS011;51310;52.198;5.422;2023-09-30T05:06:20;23.67;;;12.15;;
64842;SDS011;51310;52.198;5.422;2023-09-30T05:08:47;23.50;;;13.45;;
64842;SDS011;51310;52.198;5.422;2023-09-30T05:11:13;22.70;;;11.70;;
64842;SDS011;51310;52.198;5.422;2023-09-30T05:13:40;25.75;;;12.52;;
64842;SDS011;51310;52.198;5.422;2023-09-30T05:16:06;29.30;;;12.70;;
64842;SDS011;51310;52.198;5.422;2023-09-30T05:18:32;28.00;;;12.68;;
64842;SDS011;51310;52.198;5.422;2023-09-30T05:20:59;25.20;;;10.80;;
64842;SDS011;51310;52.198;5.422;2023-09-30T05:23:25;31.13;;;12.60;;
64842;SDS011;51310;52.198;5.422;2023-09-30T05:25:51;23.90;;;12.82;;
64842;SDS011;51310;52.198;5.422;2023-09-30T05:28:19;21.38;;;11.55;;
64842;SDS011;51310;52.198;5.422;2023-09-30T05:30:46;36.47;;;14.52;;
64842;SDS011;51310;52.198;5.422;2023-09-30T05:33:12;28.50;;;13.27;;
64842;SDS011;51310;52.198;5.422;2023-09-30T05:35:39;21.45;;;11.68;;
64842;SDS011;51310;52.198;5.422;2023-09-30T05:38:07;26.48;;;12.23;;
64842;SDS011;51310;52.198;5.422;2023-09-30T05:40:33;28.23;;;13.88;;
64842;SDS011;51310;52.198;5.422;2023-09-30T05:42:59;23.08;;;13.43;;
64842;SDS011;51310;52.198;5.422;2023-09-30T05:45:30;22.85;;;12.52;;
64842;SDS011;51310;52.198;5.422;2023-09-30T05:48:03;24.23;;;11.90;;
64842;SDS011;51310;52.198;5.422;2023-09-30T05:50:32;21.83;;;12.60;;
64842;SDS011;51310;52.198;5.422;2023-09-30T05:53:01;25.63;;;13.60;;
64842;SDS011;51310;52.198;5.422;2023-09-30T05:55:29;25.63;;;14.85;;
64842;SDS011;51310;52.198;5.422;2023-09-30T05:57:55;27.13;;;14.25;;
64842;SDS011;51310;52.198;5.422;2023-09-30T06:00:21;31.35;;;14.25;;
64842;SDS011;51310;52.198;5.422;2023-09-30T06:02:55;26.50;;;14.40;;
64842;SDS011;51310;52.198;5.422;2023-09-30T06:05:22;31.98;;;15.45;;
64842;SDS011;51310;52.198;5.422;2023-09-30T06:07:51;25.23;;;13.82;;
64842;SDS011;51310;52.198;5.422;2023-09-30T06:10:19;38.53;;;15.15;;
64842;SDS011;51310;52.198;5.422;2023-09-30T06:12:48;30.42;;;16.02;;
64842;SDS011;51310;52.198;5.422;2023-09-30T06:15:21;28.38;;;16.05;;
64842;SDS011;51310;52.198;5.422;2023-09-30T06:17:50;31.17;;;14.82;;
64842;SDS011;51310;52.198;5.422;2023-09-30T06:20:18;25.42;;;15.40;;
64842;SDS011;51310;52.198;5.422;2023-09-30T06:22:47;35.00;;;15.57;;
64842;SDS011;51310;52.198;5.422;2023-09-30T06:25:14;27.88;;;15.40;;
64842;SDS011;51310;52.198;5.422;2023-09-30T06:27:45;35.70;;;15.70;;
64842;SDS011;51310;52.198;5.422;2023-09-30T06:30:14;35.08;;;15.82;;
64842;SDS011;51310;52.198;5.422;2023-09-30T06:32:41;29.83;;;17.38;;
64842;SDS011;51310;52.198;5.422;2023-09-30T06:35:08;37.33;;;17.00;;
64842;SDS011;51310;52.198;5.422;2023-09-30T06:37:36;32.55;;;16.45;;
64842;SDS011;51310;52.198;5.422;2023-09-30T06:40:04;34.67;;;18.88;;
64842;SDS011;51310;52.198;5.422;2023-09-30T06:42:37;33.63;;;17.27;;
64842;SDS011;51310;52.198;5.422;2023-09-30T06:45:05;34.63;;;17.38;;
64842;SDS011;51310;52.198;5.422;2023-09-30T06:47:32;37.88;;;19.67;;
64842;SDS011;51310;52.198;5.422;2023-09-30T06:50:03;32.35;;;17.83;;
64842;SDS011;51310;52.198;5.422;2023-09-30T06:52:40;39.25;;;18.40;;
64842;SDS011;51310;52.198;5.422;2023-09-30T06:55:07;29.60;;;18.13;;
64842;SDS011;51310;52.198;5.422;2023-09-30T06:57:34;40.72;;;19.20;;
64842;SDS011;51310;52.198;5.422;2023-09-30T07:00:09;40.85;;;19.33;;
64842;SDS011;51310;52.198;5.422;2023-09-30T07:02:38;37.13;;;18.63;;
64842;SDS011;51310;52.198;5.422;2023-09-30T07:05:07;38.78;;;19.63;;
64842;SDS011;51310;52.198;5.422;2023-09-30T07:07:35;44.38;;;21.23;;
64842;SDS011;51310;52.198;5.422;2023-09-30T07:10:02;39.28;;;20.27;;
64842;SDS011;51310;52.198;5.422;2023-09-30T07:12:30;45.10;;;22.88;;
64842;SDS011;51310;52.198;5.422;2023-09-30T07:15:00;49.38;;;19.85;;
64842;SDS011;51310;52.198;5.422;2023-09-30T07:17:27;46.10;;;21.90;;
64842;SDS011;51310;52.198;5.422;2023-09-30T07:19:53;38.88;;;20.58;;
64842;SDS011;51310;52.198;5.422;2023-09-30T07:22:19;48.10;;;21.40;;
64842;SDS011;51310;52.198;5.422;2023-09-30T07:24:45;37.38;;;19.83;;
64842;SDS011;51310;52.198;5.422;2023-09-30T07:27:11;44.47;;;21.52;;
64842;SDS011;51310;52.198;5.422;2023-09-30T07:29:37;39.13;;;18.63;;
64842;SDS011;51310;52.198;5.422;2023-09-30T07:32:03;38.90;;;19.48;;
64842;SDS011;51310;52.198;5.422;2023-09-30T07:34:32;34.33;;;19.85;;
64842;SDS011;51310;52.198;5.422;2023-09-30T07:36:58;37.45;;;19.15;;
64842;SDS011;51310;52.198;5.422;2023-09-30T07:39:24;47.75;;;20.05;;
64842;SDS011;51310;52.198;5.422;2023-09-30T07:41:50;39.13;;;20.63;;
64842;SDS011;51310;52.198;5.422;2023-09-30T07:44:15;42.65;;;21.02;;
64842;SDS011;51310;52.198;5.422;2023-09-30T07:46:41;36.55;;;18.45;;
64842;SDS011;51310;52.198;5.422;2023-09-30T07:49:11;43.55;;;18.92;;
64842;SDS011;51310;52.198;5.422;2023-09-30T07:51:37;39.90;;;18.00;;
64842;SDS011;51310;52.198;5.422;2023-09-30T07:54:04;31.00;;;16.35;;
64842;SDS011;51310;52.198;5.422;2023-09-30T07:56:31;36.75;;;16.33;;
64842;SDS011;51310;52.198;5.422;2023-09-30T07:58:57;38.70;;;17.42;;
64842;SDS011;51310;52.198;5.422;2023-09-30T08:01:22;24.90;;;14.00;;
64842;SDS011;51310;52.198;5.422;2023-09-30T08:03:48;29.05;;;13.45;;
64842;SDS011;51310;52.198;5.422;2023-09-30T08:06:15;26.55;;;14.48;;
64842;SDS011;51310;52.198;5.422;2023-09-30T08:08:41;31.17;;;12.85;;
64842;SDS011;51310;52.198;5.422;2023-09-30T08:11:07;26.25;;;12.20;;
64842;SDS011;51310;52.198;5.422;2023-09-30T08:13:33;35.80;;;10.90;;
64842;SDS011;51310;52.198;5.422;2023-09-30T08:15:59;26.38;;;11.50;;
64842;SDS011;51310;52.198;5.422;2023-09-30T08:18:25;22.25;;;10.70;;
64842;SDS011;51310;52.198;5.422;2023-09-30T08:20:51;21.58;;;10.05;;
64842;SDS011;51310;52.198;5.422;2023-09-30T08:23:17;22.23;;;9.98;;
64842;SDS011;51310;52.198;5.422;2023-09-30T08:25:43;17.90;;;8.70;;
64842;SDS011;51310;52.198;5.422;2023-09-30T08:28:09;18.25;;;8.70;;
64842;SDS011;51310;52.198;5.422;2023-09-30T08:30:36;25.38;;;8.38;;
64842;SDS011;51310;52.198;5.422;2023-09-30T08:33:02;21.42;;;8.93;;
64842;SDS011;51310;52.198;5.422;2023-09-30T08:35:29;16.65;;;8.73;;
64842;SDS011;51310;52.198;5.422;2023-09-30T08:37:56;13.02;;;6.72;;
64842;SDS011;51310;52.198;5.422;2023-09-30T08:40:23;19.13;;;7.30;;
64842;SDS011;51310;52.198;5.422;2023-09-30T08:42:51;21.50;;;7.63;;
64842;SDS011;51310;52.198;5.422;2023-09-30T08:45:18;15.10;;;7.10;;
64842;SDS011;51310;52.198;5.422;2023-09-30T08:47:45;21.60;;;7.63;;
64842;SDS011;51310;52.198;5.422;2023-09-30T08:50:11;22.40;;;6.47;;
64842;SDS011;51310;52.198;5.422;2023-09-30T08:52:40;13.90;;;6.25;;
64842;SDS011;51310;52.198;5.422;2023-09-30T08:55:08;14.20;;;5.78;;
64842;SDS011;51310;52.198;5.422;2023-09-30T08:57:37;14.32;;;5.82;;
64842;SDS011;51310;52.198;5.422;2023-09-30T09:00:08;13.68;;;5.68;;
64842;SDS011;51310;52.198;5.422;2023-09-30T09:02:38;11.02;;;5.20;;
64842;SDS011;51310;52.198;5.422;2023-09-30T09:05:08;12.43;;;5.43;;
64842;SDS011;51310;52.198;5.422;2023-09-30T09:07:35;9.02;;;4.50;;
64842;SDS011;51310;52.198;5.422;2023-09-30T09:10:04;12.63;;;6.15;;
64842;SDS011;51310;52.198;5.422;2023-09-30T09:12:38;11.13;;;5.40;;
64842;SDS011;51310;52.198;5.422;2023-09-30T09:15:06;14.60;;;5.28;;
64842;SDS011;51310;52.198;5.422;2023-09-30T09:17:46;15.70;;;6.00;;
64842;SDS011;51310;52.198;5.422;2023-09-30T09:20:19;16.50;;;6.18;;
64842;SDS011;51310;52.198;5.422;2023-09-30T09:22:55;16.55;;;5.13;;
64842;SDS011;51310;52.198;5.422;2023-09-30T09:25:23;12.43;;;4.75;;
64842;SDS011;51310;52.198;5.422;2023-09-30T09:27:50;8.63;;;3.80;;
64842;SDS011;51310;52.198;5.422;2023-09-30T09:35:32;19.02;;;3.80;;
64842;SDS011;51310;52.198;5.422;2023-09-30T09:38:01;12.73;;;4.25;;
64842;SDS011;51310;52.198;5.422;2023-09-30T09:40:37;12.45;;;4.00;;
64842;SDS011;51310;52.198;5.422;2023-09-30T09:43:05;10.07;;;3.42;;
64842;SDS011;51310;52.198;5.422;2023-09-30T09:45:32;11.98;;;3.50;;
64842;SDS011;51310;52.198;5.422;2023-09-30T09:48:03;12.73;;;3.33;;
64842;SDS011;51310;52.198;5.422;2023-09-30T09:50:30;8.57;;;3.38;;
64842;SDS011;51310;52.198;5.422;2023-09-30T09:53:01;12.77;;;4.07;;
64842;SDS011;51310;52.198;5.422;2023-09-30T09:55:29;6.55;;;3.60;;
64842;SDS011;51310;52.198;5.422;2023-09-30T09:57:56;21.60;;;3.97;;
64842;SDS011;51310;52.198;5.422;2023-09-30T10:00:26;8.88;;;4.00;;
64842;SDS011;51310;52.198;5.422;2023-09-30T10:02:52;9.68;;;3.50;;
64842;SDS011;51310;52.198;5.422;2023-09-30T10:05:19;10.50;;;3.25;;
64842;SDS011;51310;52.198;5.422;2023-09-30T10:07:54;14.45;;;3.65;;
64842;SDS011;51310;52.198;5.422;2023-09-30T10:10:39;6.15;;;2.95;;
64842;SDS011;51310;52.198;5.422;2023-09-30T10:13:05;9.38;;;2.97;;
64842;SDS011;51310;52.198;5.422;2023-09-30T10:20:38;14.25;;;2.92;;
64842;SDS011;51310;52.198;5.422;2023-09-30T10:26:33;8.93;;;3.47;;
64842;SDS011;51310;52.198;5.422;2023-09-30T10:28:43;11.25;;;3.65;;
64842;SDS011;51310;52.198;5.422;2023-09-30T10:36:27;9.88;;;3.20;;
64842;SDS011;51310;52.198;5.422;2023-09-30T10:39:04;11.70;;;3.00;;
64842;SDS011;51310;52.198;5.422;2023-09-30T10:46:50;8.63;;;2.75;;
64842;SDS011;51310;52.198;5.422;2023-09-30T10:52:00;7.15;;;2.25;;
64842;SDS011;51310;52.198;5.422;2023-09-30T10:54:30;8.93;;;2.65;;
64842;SDS011;51310;52.198;5.422;2023-09-30T10:56:58;10.20;;;2.70;;
64842;SDS011;51310;52.198;5.422;2023-09-30T10:59:26;9.65;;;2.75;;
64842;SDS011;51310;52.198;5.422;2023-09-30T11:01:55;11.55;;;3.15;;
64842;SDS011;51310;52.198;5.422;2023-09-30T11:04:22;11.95;;;3.13;;
64842;SDS011;51310;52.198;5.422;2023-09-30T11:06:47;12.30;;;3.28;;
64842;SDS011;51310;52.198;5.422;2023-09-30T11:09:17;17.27;;;3.67;;
64842;SDS011;51310;52.198;5.422;2023-09-30T11:11:47;5.38;;;2.55;;
64842;SDS011;51310;52.198;5.422;2023-09-30T11:14:31;9.13;;;2.45;;
64842;SDS011;51310;52.198;5.422;2023-09-30T11:16:57;11.18;;;3.50;;
64842;SDS011;51310;52.198;5.422;2023-09-30T11:19:34;9.48;;;3.38;;
64842;SDS011;51310;52.198;5.422;2023-09-30T11:22:02;9.43;;;3.30;;
64842;SDS011;51310;52.198;5.422;2023-09-30T11:24:30;10.43;;;2.95;;
64842;SDS011;51310;52.198;5.422;2023-09-30T11:27:01;8.57;;;2.20;;
64842;SDS011;51310;52.198;5.422;2023-09-30T11:29:27;6.53;;;3.00;;
64842;SDS011;51310;52.198;5.422;2023-09-30T11:31:53;8.75;;;2.35;;
64842;SDS011;51310;52.198;5.422;2023-09-30T11:34:19;9.35;;;1.95;;
64842;SDS011;51310;52.198;5.422;2023-09-30T11:36:56;8.90;;;3.15;;
64842;SDS011;51310;52.198;5.422;2023-09-30T11:39:26;7.25;;;2.30;;
64842;SDS011;51310;52.198;5.422;2023-09-30T11:41:56;6.00;;;1.60;;
64842;SDS011;51310;52.198;5.422;2023-09-30T11:44:23;6.88;;;1.83;;
64842;SDS011;51310;52.198;5.422;2023-09-30T11:47:02;6.20;;;1.70;;
64842;SDS011;51310;52.198;5.422;2023-09-30T11:49:34;9.15;;;1.65;;
64842;SDS011;51310;52.198;5.422;2023-09-30T11:52:05;4.95;;;1.42;;
64842;SDS011;51310;52.198;5.422;2023-09-30T11:54:40;8.07;;;2.42;;
64842;SDS011;51310;52.198;5.422;2023-09-30T11:57:13;5.50;;;1.73;;
64842;SDS011;51310;52.198;5.422;2023-09-30T11:59:42;13.43;;;3.13;;
64842;SDS011;51310;52.198;5.422;2023-09-30T12:02:10;5.63;;;2.15;;
64842;SDS011;51310;52.198;5.422;2023-09-30T12:04:39;12.88;;;2.80;;
64842;SDS011;51310;52.198;5.422;2023-09-30T12:07:09;9.95;;;2.30;;
64842;SDS011;51310;52.198;5.422;2023-09-30T12:09:36;14.50;;;3.95;;
64842;SDS011;51310;52.198;5.422;2023-09-30T12:12:04;13.25;;;2.70;;
64842;SDS011;51310;52.198;5.422;2023-09-30T12:14:37;11.13;;;2.25;;
64842;SDS011;51310;52.198;5.422;2023-09-30T12:17:04;14.73;;;3.08;;
64842;SDS011;51310;52.198;5.422;2023-09-30T12:19:30;7.65;;;2.53;;
64842;SDS011;51310;52.198;5.422;2023-09-30T12:21:56;8.27;;;2.30;;
64842;SDS011;51310;52.198;5.422;2023-09-30T12:24:22;7.57;;;2.42;;
64842;SDS011;51310;52.198;5.422;2023-09-30T12:26:49;10.93;;;2.53;;
64842;SDS011;51310;52.198;5.422;2023-09-30T12:29:18;11.07;;;2.78;;
64842;SDS011;51310;52.198;5.422;2023-09-30T12:31:47;12.55;;;3.10;;
64842;SDS011;51310;52.198;5.422;2023-09-30T12:34:16;9.95;;;2.67;;
64842;SDS011;51310;52.198;5.422;2023-09-30T12:36:42;10.60;;;2.38;;
64842;SDS011;51310;52.198;5.422;2023-09-30T12:39:11;11.25;;;2.67;;
64842;SDS011;51310;52.198;5.422;2023-09-30T12:41:41;5.50;;;2.50;;
64842;SDS011;51310;52.198;5.422;2023-09-30T12:44:09;11.25;;;2.92;;
64842;SDS011;51310;52.198;5.422;2023-09-30T12:46:36;7.95;;;2.03;;
64842;SDS011;51310;52.198;5.422;2023-09-30T12:49:04;9.07;;;3.20;;
64842;SDS011;51310;52.198;5.422;2023-09-30T12:51:32;8.43;;;2.50;;
64842;SDS011;51310;52.198;5.422;2023-09-30T12:53:59;10.80;;;2.78;;
64842;SDS011;51310;52.198;5.422;2023-09-30T12:56:26;7.82;;;2.35;;
64842;SDS011;51310;52.198;5.422;2023-09-30T12:58:54;5.72;;;2.33;;
64842;SDS011;51310;52.198;5.422;2023-09-30T13:01:21;9.52;;;2.30;;
64842;SDS011;51310;52.198;5.422;2023-09-30T13:03:47;17.38;;;4.95;;
64842;SDS011;51310;52.198;5.422;2023-09-30T13:06:14;9.38;;;3.00;;
64842;SDS011;51310;52.198;5.422;2023-09-30T13:08:41;8.95;;;3.00;;
64842;SDS011;51310;52.198;5.422;2023-09-30T13:11:07;8.30;;;2.35;;
64842;SDS011;51310;52.198;5.422;2023-09-30T13:13:33;12.75;;;3.08;;
64842;SDS011;51310;52.198;5.422;2023-09-30T13:16:00;7.32;;;2.05;;
64842;SDS011;51310;52.198;5.422;2023-09-30T13:18:30;8.35;;;2.92;;
64842;SDS011;51310;52.198;5.422;2023-09-30T13:20:57;13.93;;;2.83;;
64842;SDS011;51310;52.198;5.422;2023-09-30T13:23:23;8.32;;;2.35;;
64842;SDS011;51310;52.198;5.422;2023-09-30T13:25:49;7.07;;;2.83;;
64842;SDS011;51310;52.198;5.422;2023-09-30T13:28:15;12.23;;;3.70;;
64842;SDS011;51310;52.198;5.422;2023-09-30T13:30:41;8.38;;;4.15;;
64842;SDS011;51310;52.198;5.422;2023-09-30T13:33:07;8.07;;;2.35;;
64842;SDS011;51310;52.198;5.422;2023-09-30T13:35:33;15.45;;;5.35;;
64842;SDS011;51310;52.198;5.422;2023-09-30T13:38:01;16.20;;;6.68;;
64842;SDS011;51310;52.198;5.422;2023-09-30T13:40:28;9.68;;;3.13;;
64842;SDS011;51310;52.198;5.422;2023-09-30T13:42:54;10.20;;;3.67;;
64842;SDS011;51310;52.198;5.422;2023-09-30T13:45:22;11.82;;;3.22;;
64842;SDS011;51310;52.198;5.422;2023-09-30T13:47:48;15.38;;;3.55;;
64842;SDS011;51310;52.198;5.422;2023-09-30T13:50:14;9.13;;;2.58;;
64842;SDS011;51310;52.198;5.422;2023-09-30T13:52:41;10.20;;;2.60;;
64842;SDS011;51310;52.198;5.422;2023-09-30T13:55:07;6.93;;;2.40;;
64842;SDS011;51310;52.198;5.422;2023-09-30T13:57:33;13.88;;;3.10;;
64842;SDS011;51310;52.198;5.422;2023-09-30T14:00:03;27.33;;;3.55;;
64842;SDS011;51310;52.198;5.422;2023-09-30T14:02:32;11.20;;;2.95;;
64842;SDS011;51310;52.198;5.422;2023-09-30T14:04:58;11.35;;;2.80;;
64842;SDS011;51310;52.198;5.422;2023-09-30T14:07:24;11.98;;;2.70;;
64842;SDS011;51310;52.198;5.422;2023-09-30T14:09:50;7.20;;;2.08;;
64842;SDS011;51310;52.198;5.422;2023-09-30T14:12:17;17.15;;;6.45;;
64842;SDS011;51310;52.198;5.422;2023-09-30T14:14:43;11.57;;;2.42;;
64842;SDS011;51310;52.198;5.422;2023-09-30T14:17:09;7.78;;;3.17;;
64842;SDS011;51310;52.198;5.422;2023-09-30T14:19:36;7.22;;;3.30;;
64842;SDS011;51310;52.198;5.422;2023-09-30T14:22:03;11.95;;;2.53;;
64842;SDS011;51310;52.198;5.422;2023-09-30T14:24:30;9.15;;;2.58;;
64842;SDS011;51310;52.198;5.422;2023-09-30T14:27:01;12.80;;;4.50;;
64842;SDS011;51310;52.198;5.422;2023-09-30T14:29:28;11.10;;;3.65;;
64842;SDS011;51310;52.198;5.422;2023-09-30T14:31:55;6.22;;;3.45;;
64842;SDS011;51310;52.198;5.422;2023-09-30T14:34:22;11.88;;;3.20;;
64842;SDS011;51310;52.198;5.422;2023-09-30T14:36:49;9.40;;;3.08;;
64842;SDS011;51310;52.198;5.422;2023-09-30T14:39:16;14.73;;;3.00;;
64842;SDS011;51310;52.198;5.422;2023-09-30T14:41:43;13.02;;;2.60;;
64842;SDS011;51310;52.198;5.422;2023-09-30T14:44:10;18.05;;;2.97;;
64842;SDS011;51310;52.198;5.422;2023-09-30T14:46:40;9.18;;;2.80;;
64842;SDS011;51310;52.198;5.422;2023-09-30T14:49:06;11.65;;;3.85;;
64842;SDS011;51310;52.198;5.422;2023-09-30T14:51:33;14.45;;;3.35;;
64842;SDS011;51310;52.198;5.422;2023-09-30T14:54:00;11.90;;;2.75;;
64842;SDS011;51310;52.198;5.422;2023-09-30T14:56:28;12.10;;;2.97;;
64842;SDS011;51310;52.198;5.422;2023-09-30T14:58:54;9.15;;;2.42;;
64842;SDS011;51310;52.198;5.422;2023-09-30T15:01:20;16.95;;;3.13;;
64842;SDS011;51310;52.198;5.422;2023-09-30T15:03:46;10.13;;;2.67;;